Terminal Aerodrome Forecast
Issued by NWS Missoula, MT

Home | Current Version | Previous Version | Text Only | Print | Product List | Glossary On
Versions: 1 2 3 4 5 6 7 8 9 10 11 12 13 14 15 16 17 18 19 20 21 22 23 24 25 26
000
FTUS45 KMSO 222053 AAB
TAFMSO
TAF AMD
KMSO 222053Z 2221/2318 16012KT P6SM FEW002
     FM230100 VRB04KT P6SM OVC100=

USA.gov is the U.S. government's official web portal to all federal, state and local government web resources and services.